createdAt,value
2018-09-28T00:01:39.034Z,70.98
2018-09-28T00:04:07.629Z,70.74
2018-09-28T00:06:36.213Z,71.75
2018-09-28T00:09:06.533Z,71.29
2018-09-28T00:11:35.098Z,71.26
2018-09-28T00:14:03.721Z,71.21
2018-09-28T00:16:32.290Z,71.39
2018-09-28T00:19:00.917Z,72.65
2018-09-28T00:21:29.528Z,73.97
2018-09-28T00:23:58.098Z,73.21
2018-09-28T00:26:26.657Z,72.48
2018-09-28T00:28:55.323Z,72.67
2018-09-28T00:31:23.854Z,72.69
2018-09-28T00:33:52.421Z,72.28
2018-09-28T00:36:20.958Z,71.60
2018-09-28T00:38:49.533Z,71.43
2018-09-28T00:41:18.074Z,71.75
2018-09-28T00:43:46.649Z,71.72
2018-09-28T00:46:15.195Z,71.60
2018-09-28T00:48:43.776Z,71.48
2018-09-28T00:51:12.345Z,71.69
2018-09-28T00:53:40.949Z,72.45
2018-09-28T00:56:09.487Z,72.21
2018-09-28T00:58:38.059Z,71.94
2018-09-28T01:01:06.665Z,72.02
2018-09-28T01:03:35.250Z,71.89
2018-09-28T01:06:03.805Z,72.60
2018-09-28T01:08:32.384Z,72.55
2018-09-28T01:11:00.921Z,72.40
2018-09-28T01:13:29.500Z,72.16
2018-09-28T01:15:58.039Z,72.97
2018-09-28T01:18:26.608Z,73.44
2018-09-28T01:20:55.173Z,73.07
2018-09-28T01:23:23.785Z,73.17
2018-09-28T01:25:52.376Z,72.72
2018-09-28T01:28:20.933Z,72.92
2018-09-28T01:30:49.460Z,72.94
2018-09-28T01:33:18.035Z,72.22
2018-09-28T01:35:46.577Z,72.38
2018-09-28T01:38:15.164Z,73.60
2018-09-28T01:40:43.711Z,74.31
2018-09-28T01:43:12.285Z,74.35
2018-09-28T01:45:40.839Z,73.49
2018-09-28T01:48:09.499Z,73.76
2018-09-28T01:50:38.030Z,73.07
2018-09-28T01:53:06.642Z,73.24
2018-09-28T01:55:35.181Z,73.26
2018-09-28T01:58:03.752Z,73.78
2018-09-28T02:00:32.313Z,74.00
2018-09-28T02:03:00.861Z,73.51
2018-09-28T02:05:29.431Z,73.76
2018-09-28T02:07:57.972Z,73.62
2018-09-28T02:10:26.536Z,73.15
2018-09-28T02:12:55.063Z,73.24
2018-09-28T02:15:23.642Z,73.37
2018-09-28T02:17:52.188Z,73.29
2018-09-28T02:20:20.790Z,74.20
2018-09-28T02:22:49.320Z,74.71
2018-09-28T02:25:17.909Z,74.71
2018-09-28T02:27:46.460Z,75.64
2018-09-28T02:30:15.110Z,75.32
2018-09-28T02:32:43.645Z,75.04
2018-09-28T02:35:12.197Z,74.83
2018-09-28T02:37:40.803Z,75.29
2018-09-28T02:40:09.397Z,76.00
2018-09-28T02:42:37.941Z,76.29
2018-09-28T02:45:06.552Z,75.68
2018-09-28T02:47:35.092Z,74.88
2018-09-28T02:50:03.677Z,74.61
2018-09-28T02:52:32.211Z,74.51
2018-09-28T02:55:00.778Z,73.99
2018-09-28T02:57:29.332Z,74.61
2018-09-28T02:59:57.892Z,74.10
2018-09-28T03:02:26.590Z,73.86
2018-09-28T03:04:55.182Z,74.06
2018-09-28T03:07:23.740Z,74.00
2018-09-28T03:09:52.318Z,74.20
2018-09-28T03:12:20.861Z,74.23
2018-09-28T03:14:49.420Z,74.56
2018-09-28T03:17:17.941Z,74.77
2018-09-28T03:19:46.500Z,74.46
2018-09-28T03:22:15.039Z,74.96
2018-09-28T03:24:43.600Z,74.94
2018-09-28T03:27:12.125Z,75.74
2018-09-28T03:29:40.677Z,75.95
2018-09-28T03:32:09.205Z,76.03
2018-09-28T03:34:37.775Z,75.34
2018-09-28T03:37:06.365Z,75.74
2018-09-28T03:39:34.964Z,76.05
2018-09-28T03:42:03.488Z,76.10
2018-09-28T03:44:32.030Z,75.77
2018-09-28T03:47:00.673Z,75.40
2018-09-28T03:49:29.218Z,76.00
2018-09-28T03:51:57.792Z,76.04
2018-09-28T03:54:26.322Z,76.17
2018-09-28T03:56:54.870Z,77.06
2018-09-28T03:59:23.416Z,77.50
2018-09-28T04:01:52.019Z,79.03
2018-09-28T04:04:20.550Z,80.17
2018-09-28T04:06:49.098Z,78.29
2018-09-28T04:09:17.645Z,77.38
2018-09-28T04:11:46.259Z,78.02
2018-09-28T04:14:14.781Z,78.32
2018-09-28T04:16:43.347Z,79.22
2018-09-28T04:19:11.891Z,79.26
2018-09-28T04:21:43.496Z,77.93
2018-09-28T04:24:12.021Z,77.90
2018-09-28T04:26:40.582Z,78.24
2018-09-28T04:29:09.112Z,78.23
2018-09-28T04:31:37.692Z,78.11
2018-09-28T04:34:06.247Z,77.73
2018-09-28T04:36:34.924Z,78.23
2018-09-28T04:39:04.047Z,77.89
2018-09-28T04:41:32.640Z,77.50
2018-09-28T04:44:01.164Z,77.84
2018-09-28T04:46:29.765Z,77.97
2018-09-28T04:48:58.320Z,77.56
2018-09-28T04:51:26.920Z,77.12
2018-09-28T04:53:55.457Z,77.02
2018-09-28T04:56:24.036Z,76.62
2018-09-28T04:58:52.619Z,76.59
2018-09-28T05:01:21.188Z,76.97
2018-09-28T05:03:49.725Z,77.14
2018-09-28T05:06:18.312Z,77.87
2018-09-28T05:08:46.853Z,78.12
2018-09-28T05:11:15.858Z,77.66
2018-09-28T05:13:44.380Z,78.18
2018-09-28T05:16:12.957Z,79.32
2018-09-28T05:18:41.520Z,78.62
2018-09-28T05:21:10.090Z,78.18
2018-09-28T05:23:38.637Z,77.64
2018-09-28T05:26:07.288Z,77.22
2018-09-28T05:28:35.821Z,76.38
2018-09-28T05:31:04.431Z,76.01
2018-09-28T05:33:32.990Z,75.82
2018-09-28T05:36:01.530Z,76.01
2018-09-28T05:38:30.086Z,76.71
2018-09-28T05:40:58.652Z,79.01
2018-09-28T05:43:27.248Z,78.59
2018-09-28T05:45:55.892Z,78.52
2018-09-28T05:48:24.522Z,77.63
2018-09-28T05:50:53.130Z,76.75
2018-09-28T05:53:21.791Z,75.82
2018-09-28T05:55:50.444Z,75.92
2018-09-28T05:58:24.364Z,75.59
2018-09-28T06:00:58.285Z,76.44
2018-09-28T06:03:27.056Z,75.74
2018-09-28T06:06:02.601Z,77.42
2018-09-28T06:08:32.330Z,76.75
2018-09-28T06:11:00.912Z,75.76
2018-09-28T06:13:29.567Z,75.53
2018-09-28T06:15:58.800Z,75.36
2018-09-28T06:18:27.424Z,74.65
2018-09-28T06:20:56.053Z,73.77
2018-09-28T06:23:24.685Z,72.26
2018-09-28T06:25:53.277Z,70.40
2018-09-28T06:28:21.852Z,65.04
2018-09-28T06:30:50.404Z,57.74
2018-09-28T06:33:19.010Z,50.30
2018-09-28T06:35:48.095Z,45.22
2018-09-28T06:38:16.672Z,42.57
2018-09-28T06:40:45.241Z,39.81
2018-09-28T06:43:13.857Z,36.72
2018-09-28T06:45:42.429Z,33.55
2018-09-28T06:48:11.058Z,31.62
2018-09-28T06:50:39.629Z,30.69
2018-09-28T06:53:08.260Z,29.07
2018-09-28T06:55:36.805Z,28.42
2018-09-28T06:58:05.436Z,27.93
2018-09-28T07:00:34.038Z,25.87
2018-09-28T07:03:02.653Z,26.90
2018-09-28T07:05:31.206Z,28.53
2018-09-28T07:07:59.810Z,28.82
2018-09-28T07:10:28.494Z,31.14
2018-09-28T07:12:57.089Z,28.83
2018-09-28T07:15:25.637Z,27.91
2018-09-28T07:17:54.240Z,31.47
2018-09-28T07:20:22.811Z,35.00
2018-09-28T07:22:51.413Z,34.50
2018-09-28T07:25:19.980Z,27.80
2018-09-28T07:27:48.563Z,26.21
2018-09-28T07:30:17.159Z,25.94
2018-09-28T07:32:45.774Z,25.37
2018-09-28T07:35:14.370Z,23.29
2018-09-28T07:37:42.982Z,26.04
2018-09-28T07:40:11.569Z,27.11
2018-09-28T07:42:40.159Z,26.63
2018-09-28T07:45:08.779Z,28.60
2018-09-28T07:47:37.333Z,28.66
2018-09-28T07:50:05.953Z,26.64
2018-09-28T07:52:34.509Z,26.48
2018-09-28T07:55:03.097Z,25.74
2018-09-28T07:57:31.686Z,24.74
2018-09-28T08:00:00.321Z,22.21
2018-09-28T08:02:28.908Z,22.50
2018-09-28T08:04:57.553Z,21.74
2018-09-28T08:07:26.138Z,19.84
2018-09-28T08:09:54.754Z,18.64
2018-09-28T08:12:23.320Z,18.95
2018-09-28T08:14:51.908Z,19.54
2018-09-28T08:17:20.501Z,20.35
2018-09-28T08:19:49.130Z,20.60
2018-09-28T08:22:17.782Z,18.63
2018-09-28T08:24:46.421Z,19.25
2018-09-28T08:27:14.993Z,19.67
2018-09-28T08:29:43.634Z,19.15
2018-09-28T08:32:12.232Z,17.92
2018-09-28T08:34:40.863Z,18.02
2018-09-28T08:37:09.459Z,19.15
2018-09-28T08:39:38.072Z,18.06
2018-09-28T08:42:07.227Z,16.93
2018-09-28T08:44:35.855Z,15.83
2018-09-28T08:47:04.476Z,17.80
2018-09-28T08:49:33.113Z,18.96
2018-09-28T08:52:01.680Z,19.30
2018-09-28T08:54:30.293Z,17.71
2018-09-28T08:56:58.881Z,17.36
2018-09-28T08:59:27.493Z,16.58
2018-09-28T09:01:56.071Z,16.93
2018-09-28T09:04:24.712Z,16.65
2018-09-28T09:06:53.252Z,18.01
2018-09-28T09:09:22.090Z,19.25
2018-09-28T09:11:51.575Z,17.29
2018-09-28T09:14:20.196Z,16.52
2018-09-28T09:16:49.056Z,15.39
2018-09-28T09:19:17.692Z,16.61
2018-09-28T09:21:46.290Z,15.10
2018-09-28T09:24:16.843Z,14.27
2018-09-28T09:26:45.453Z,14.56
2018-09-28T09:29:14.005Z,15.45
2018-09-28T09:31:42.581Z,15.87
2018-09-28T09:34:32.835Z,16.67
2018-09-28T09:37:15.065Z,17.50
2018-09-28T09:43:15.180Z,16.49
2018-09-28T09:45:43.883Z,18.15
2018-09-28T09:48:12.427Z,18.07
2018-09-28T09:50:44.139Z,17.41
2018-09-28T09:53:12.689Z,18.79
2018-09-28T09:55:41.285Z,18.21
2018-09-28T09:58:09.867Z,18.05
2018-09-28T10:00:43.829Z,17.95
2018-09-28T10:03:17.564Z,19.42
2018-09-28T10:05:46.144Z,19.98
2018-09-28T10:08:14.705Z,18.89
2018-09-28T10:10:43.276Z,19.31
2018-09-28T10:13:11.831Z,18.64
2018-09-28T10:15:40.406Z,18.61
2018-09-28T10:18:08.941Z,18.20
2018-09-28T10:20:37.541Z,17.81
2018-09-28T10:23:06.492Z,17.29
2018-09-28T10:25:35.054Z,17.59
2018-09-28T10:28:03.597Z,18.54
2018-09-28T10:30:32.180Z,20.31
2018-09-28T10:33:00.729Z,20.44
2018-09-28T10:35:29.312Z,20.56
2018-09-28T10:37:57.940Z,20.42
2018-09-28T10:40:26.656Z,19.38
2018-09-28T10:42:55.087Z,19.91
2018-09-28T10:45:23.721Z,20.21
2018-09-28T10:47:52.208Z,20.34
2018-09-28T10:50:20.770Z,19.44
2018-09-28T10:54:13.693Z,20.12
2018-09-28T10:56:42.292Z,19.91
2018-09-28T10:59:10.832Z,21.08
2018-09-28T11:01:39.448Z,21.18
2018-09-28T11:04:08.062Z,21.00
2018-09-28T11:06:36.704Z,21.06
2018-09-28T11:09:08.218Z,19.50
2018-09-28T11:11:36.832Z,19.15
2018-09-28T11:14:05.408Z,20.73
2018-09-28T11:16:33.997Z,20.96
2018-09-28T11:19:02.619Z,19.06
2018-09-28T11:21:31.226Z,19.42
2018-09-28T11:23:59.749Z,21.37
2018-09-28T11:26:28.636Z,22.57
2018-09-28T11:28:57.239Z,22.62
2018-09-28T11:31:25.821Z,21.54
2018-09-28T11:33:54.372Z,21.92
2018-09-28T11:36:22.961Z,22.43
2018-09-28T11:38:51.513Z,22.97
2018-09-28T11:41:20.102Z,22.53
2018-09-28T11:43:48.644Z,22.14
2018-09-28T11:46:17.244Z,22.13
2018-09-28T11:48:45.812Z,22.93
2018-09-28T11:51:14.383Z,22.34
2018-09-28T11:53:42.983Z,21.45
2018-09-28T11:56:11.560Z,21.32
2018-09-28T11:58:40.148Z,20.84
2018-09-28T12:01:09.168Z,21.74
2018-09-28T12:03:37.912Z,21.43
2018-09-28T12:06:06.544Z,22.67
2018-09-28T12:08:35.144Z,23.64
2018-09-28T12:11:04.324Z,24.32
2018-09-28T12:13:32.873Z,25.70
2018-09-28T12:16:01.454Z,27.13
2018-09-28T12:18:30.180Z,27.25
2018-09-28T12:20:58.721Z,26.99
2018-09-28T12:23:27.344Z,27.77
2018-09-28T12:25:55.934Z,27.47
2018-09-28T12:28:24.552Z,29.47
2018-09-28T12:30:53.139Z,29.59
2018-09-28T12:33:21.948Z,30.62
2018-09-28T12:35:50.493Z,30.50
2018-09-28T12:38:19.111Z,30.53
2018-09-28T12:40:47.724Z,30.48
2018-09-28T12:43:16.394Z,32.06
2018-09-28T12:45:45.209Z,32.18
2018-09-28T12:48:13.727Z,32.12
2018-09-28T12:50:42.354Z,32.44
2018-09-28T12:53:10.922Z,31.91
2018-09-28T12:55:39.544Z,30.95
2018-09-28T12:58:08.157Z,31.72
2018-09-28T13:00:36.755Z,31.76
2018-09-28T13:03:05.328Z,31.44
2018-09-28T13:05:33.901Z,32.37
2018-09-28T13:08:02.512Z,31.01
2018-09-28T13:10:31.090Z,31.61
2018-09-28T13:12:59.701Z,32.03
2018-09-28T13:15:28.289Z,31.64
2018-09-28T13:17:56.896Z,31.01
2018-09-28T13:20:25.592Z,30.77
2018-09-28T13:22:54.179Z,30.77
2018-09-28T13:25:22.759Z,29.83
2018-09-28T13:27:51.362Z,29.77
2018-09-28T13:30:20.003Z,29.82
2018-09-28T13:32:48.651Z,29.19
2018-09-28T13:35:17.213Z,29.46
2018-09-28T13:37:45.813Z,28.06
2018-09-28T13:40:14.408Z,28.88
2018-09-28T13:42:43.097Z,28.81
2018-09-28T13:45:11.656Z,28.80
2018-09-28T13:47:40.272Z,28.25
2018-09-28T13:50:09.009Z,29.75
2018-09-28T13:52:37.631Z,29.60
2018-09-28T13:55:07.051Z,30.79
2018-09-28T13:57:35.647Z,30.18
2018-09-28T14:00:04.325Z,27.51
2018-09-28T14:02:32.966Z,28.85
2018-09-28T14:05:01.634Z,28.68
2018-09-28T14:07:30.179Z,29.12
2018-09-28T14:09:58.815Z,29.42
2018-09-28T14:12:27.537Z,31.07
2018-09-28T14:14:56.099Z,30.28
2018-09-28T14:17:24.676Z,29.12
2018-09-28T14:19:53.312Z,29.15
2018-09-28T14:22:21.968Z,29.14
2018-09-28T14:24:50.640Z,28.67
2018-09-28T14:27:19.182Z,28.81
2018-09-28T14:29:47.838Z,27.83
2018-09-28T14:32:16.492Z,27.71
2018-09-28T14:34:45.119Z,25.89
2018-09-28T14:37:13.738Z,26.22
2018-09-28T14:39:42.411Z,25.65
2018-09-28T14:42:11.023Z,27.10
2018-09-28T14:44:39.667Z,27.10
2018-09-28T14:47:08.256Z,29.70
2018-09-28T14:49:36.891Z,29.55
2018-09-28T14:52:05.497Z,30.29
2018-09-28T14:54:34.216Z,30.66
2018-09-28T14:57:02.690Z,30.83
2018-09-28T14:59:31.284Z,31.52
2018-09-28T15:01:59.845Z,32.33
2018-09-28T15:04:28.465Z,32.32
2018-09-28T15:06:57.081Z,31.51
2018-09-28T15:09:25.675Z,32.72
2018-09-28T15:11:54.260Z,32.81
2018-09-28T15:14:22.919Z,33.10
2018-09-28T15:16:51.494Z,33.55
2018-09-28T15:19:20.095Z,32.83
2018-09-28T15:21:48.692Z,31.71
2018-09-28T15:24:17.314Z,30.89
2018-09-28T15:26:45.887Z,29.87
2018-09-28T15:29:14.509Z,29.31
2018-09-28T15:31:43.117Z,28.89
2018-09-28T15:34:11.738Z,28.27
2018-09-28T15:36:40.344Z,27.35
2018-09-28T15:39:11.109Z,27.04
2018-09-28T15:41:39.697Z,26.20
2018-09-28T15:44:08.428Z,27.42
2018-09-28T15:46:37.133Z,27.81
2018-09-28T15:49:05.786Z,28.99
2018-09-28T15:51:34.387Z,29.75
2018-09-28T15:54:03.679Z,30.59
2018-09-28T15:56:32.267Z,31.66
2018-09-28T15:59:00.864Z,32.51
2018-09-28T16:01:29.475Z,33.31
2018-09-28T16:03:58.055Z,33.70
2018-09-28T16:06:26.689Z,34.15
2018-09-28T16:08:55.265Z,34.05
2018-09-28T16:11:23.903Z,34.60
2018-09-28T16:13:52.479Z,35.14
2018-09-28T16:16:21.107Z,35.60
2018-09-28T16:18:49.719Z,36.05
2018-09-28T16:21:18.294Z,36.32
2018-09-28T16:23:46.904Z,36.50
2018-09-28T16:26:15.576Z,36.33
2018-09-28T16:30:08.538Z,36.47
2018-09-28T16:32:42.171Z,36.86
2018-09-28T16:35:10.768Z,36.66
2018-09-28T16:37:39.344Z,37.31
2018-09-28T16:40:08.133Z,37.88
2018-09-28T16:42:37.029Z,38.41
2018-09-28T16:45:05.613Z,39.10
2018-09-28T16:47:34.233Z,39.83
2018-09-28T16:50:03.066Z,40.02
2018-09-28T16:52:31.652Z,41.13
2018-09-28T16:55:00.225Z,40.73
2018-09-28T16:57:28.879Z,41.56
2018-09-28T16:59:57.504Z,42.20
2018-09-28T17:02:26.368Z,42.90
2018-09-28T17:04:54.948Z,42.83
2018-09-28T17:07:23.598Z,42.86
2018-09-28T17:09:52.179Z,43.16
2018-09-28T17:12:20.756Z,43.04
2018-09-28T17:14:49.330Z,43.15
2018-09-28T17:17:17.947Z,43.27
2018-09-28T17:19:46.533Z,43.54
2018-09-28T17:22:15.160Z,44.60
2018-09-28T17:24:43.722Z,44.56
2018-09-28T17:27:12.344Z,44.60
2018-09-28T17:29:40.900Z,44.77
2018-09-28T17:32:09.563Z,45.23
2018-09-28T17:34:38.104Z,45.33
2018-09-28T17:37:06.766Z,45.79
2018-09-28T17:39:35.401Z,45.74
2018-09-28T17:42:03.988Z,46.31
2018-09-28T17:44:32.573Z,47.22
2018-09-28T17:47:01.183Z,47.66
2018-09-28T17:49:29.707Z,48.04
2018-09-28T17:51:58.317Z,48.60
2018-09-28T17:54:26.877Z,49.18
2018-09-28T17:56:55.468Z,49.28
2018-09-28T17:59:24.021Z,49.18
2018-09-28T18:01:52.603Z,49.66
2018-09-28T18:04:21.149Z,50.08
2018-09-28T18:06:49.720Z,50.21
2018-09-28T18:09:18.254Z,51.22
2018-09-28T18:11:46.836Z,51.25
2018-09-28T18:14:15.421Z,51.34
2018-09-28T18:16:43.985Z,51.79
2018-09-28T18:19:12.568Z,51.93
2018-09-28T18:21:41.140Z,52.49
2018-09-28T18:24:09.690Z,52.87
2018-09-28T18:26:38.288Z,52.78
2018-09-28T18:29:06.913Z,53.42
2018-09-28T18:31:35.507Z,53.91
2018-09-28T18:34:04.122Z,54.09
2018-09-28T18:36:32.680Z,54.23
2018-09-28T18:39:01.310Z,54.32
2018-09-28T18:41:29.921Z,54.88
2018-09-28T18:43:58.526Z,54.74
2018-09-28T18:46:27.117Z,54.95
2018-09-28T18:48:55.733Z,54.96
2018-09-28T18:51:24.304Z,55.31
2018-09-28T18:53:52.904Z,55.97
2018-09-28T18:56:21.500Z,55.87
2018-09-28T18:58:50.162Z,56.01
2018-09-28T19:01:18.690Z,55.97
2018-09-28T19:03:47.326Z,55.98
2018-09-28T19:06:15.921Z,56.25
2018-09-28T19:08:44.459Z,56.35
2018-09-28T19:11:13.013Z,55.83
2018-09-28T19:13:41.640Z,56.49
2018-09-28T19:16:10.235Z,56.60
2018-09-28T19:18:38.853Z,56.46
2018-09-28T19:21:07.449Z,56.40
2018-09-28T19:23:36.055Z,56.80
2018-09-28T19:26:04.637Z,56.40
2018-09-28T19:28:33.293Z,56.68
2018-09-28T19:31:01.871Z,56.45
2018-09-28T19:33:30.469Z,56.77
2018-09-28T19:35:59.044Z,56.68
2018-09-28T19:38:27.633Z,57.15
2018-09-28T19:40:57.899Z,56.84
2018-09-28T19:43:26.515Z,56.36
2018-09-28T19:45:55.089Z,57.36
2018-09-28T19:48:23.661Z,56.75
2018-09-28T19:50:52.218Z,57.04
2018-09-28T19:53:20.861Z,57.16
2018-09-28T19:55:49.849Z,57.55
2018-09-28T19:58:18.632Z,58.09
2018-09-28T20:00:47.216Z,57.71
2018-09-28T20:03:15.832Z,57.68
2018-09-28T20:05:44.412Z,57.90
2018-09-28T20:08:13.030Z,57.46
2018-09-28T20:10:41.627Z,58.03
2018-09-28T20:13:10.233Z,58.05
2018-09-28T20:15:38.873Z,57.47
2018-09-28T20:18:07.520Z,57.39
2018-09-28T20:20:36.100Z,57.33
2018-09-28T20:23:04.687Z,56.38
2018-09-28T20:26:57.700Z,56.13
2018-09-28T20:29:26.319Z,54.84
2018-09-28T20:31:54.921Z,54.25
2018-09-28T20:34:23.513Z,54.09
2018-09-28T20:36:52.121Z,53.73
2018-09-28T20:39:20.708Z,53.30
2018-09-28T20:41:49.299Z,53.29
2018-09-28T20:44:17.876Z,53.46
2018-09-28T20:46:46.454Z,52.36
2018-09-28T20:49:15.070Z,51.32
2018-09-28T20:51:43.641Z,50.96
2018-09-28T20:54:12.280Z,50.94
2018-09-28T20:56:40.844Z,50.61
2018-09-28T20:59:09.526Z,50.62
2018-09-28T21:01:38.131Z,50.47
2018-09-28T21:04:06.856Z,50.46
2018-09-28T21:06:35.470Z,50.05
2018-09-28T21:09:04.788Z,49.97
2018-09-28T21:11:33.376Z,49.62
2018-09-28T21:14:01.990Z,49.88
2018-09-28T21:16:30.620Z,49.59
2018-09-28T21:18:59.231Z,49.91
2018-09-28T21:21:27.905Z,49.45
2018-09-28T21:23:56.542Z,49.46
2018-09-28T21:26:25.216Z,49.13
2018-09-28T21:28:53.897Z,49.56
2018-09-28T21:31:22.453Z,49.21
2018-09-28T21:33:51.010Z,49.68
2018-09-28T21:36:19.665Z,50.32
2018-09-28T21:38:48.260Z,49.86
2018-09-28T21:41:16.914Z,50.41
2018-09-28T21:43:45.506Z,50.67
2018-09-28T21:46:14.124Z,51.69
2018-09-28T21:48:42.719Z,52.31
2018-09-28T21:51:11.333Z,53.89
2018-09-28T21:53:39.908Z,55.45
2018-09-28T21:56:08.541Z,57.22
2018-09-28T21:58:37.237Z,58.07
2018-09-28T22:01:05.853Z,58.76
2018-09-28T22:03:34.420Z,58.88
2018-09-28T22:06:03.001Z,59.65
2018-09-28T22:08:31.598Z,60.06
2018-09-28T22:11:00.215Z,60.05
2018-09-28T22:13:28.798Z,59.73
2018-09-28T22:15:57.383Z,59.79
2018-09-28T22:18:25.987Z,57.63
2018-09-28T22:20:54.549Z,58.04
2018-09-28T22:23:23.209Z,57.80
2018-09-28T22:25:51.844Z,57.71
2018-09-28T22:28:20.421Z,55.98
2018-09-28T22:30:49.093Z,56.52
2018-09-28T22:33:17.662Z,56.30
2018-09-28T22:35:46.272Z,56.72
2018-09-28T22:38:14.840Z,56.67
2018-09-28T22:40:43.526Z,55.94
2018-09-28T22:43:12.141Z,56.95
2018-09-28T22:45:40.745Z,56.64
2018-09-28T22:48:09.325Z,56.72
2018-09-28T22:50:37.948Z,55.69
2018-09-28T22:53:06.677Z,55.35
2018-09-28T22:55:35.276Z,56.34
2018-09-28T22:58:03.865Z,55.05
2018-09-28T23:00:32.477Z,54.90
2018-09-28T23:03:01.078Z,55.15
2018-09-28T23:05:29.681Z,55.07
2018-09-28T23:07:58.537Z,55.29
2018-09-28T23:10:27.121Z,54.98
2018-09-28T23:12:55.705Z,55.18
2018-09-28T23:15:24.285Z,54.83
2018-09-28T23:17:52.867Z,54.85
2018-09-28T23:20:21.452Z,54.54
2018-09-28T23:22:50.070Z,55.35
2018-09-28T23:25:18.703Z,55.23
2018-09-28T23:27:47.385Z,55.34
2018-09-28T23:30:15.939Z,55.55
2018-09-28T23:32:44.496Z,55.47
2018-09-28T23:35:13.036Z,55.21
2018-09-28T23:37:41.608Z,54.88
2018-09-28T23:40:10.156Z,56.09
2018-09-28T23:42:38.797Z,55.20
2018-09-28T23:45:07.370Z,54.43
2018-09-28T23:47:36.027Z,54.16
2018-09-28T23:50:04.568Z,53.86
2018-09-28T23:52:33.149Z,53.14
2018-09-28T23:55:01.739Z,53.17
2018-09-28T23:57:30.317Z,52.86
2018-09-28T23:59:58.890Z,52.67
